Putney, VT (05346)

8:28 PM EDT on July 29, 2016 (GMT -0400)
Green Mountain Orchard | | Change Station

Elev 715 ft 42.99 °N, 72.54 °W | Updated 11 seconds ago

Partly Cloudy
Partly Cloudy
71.6 °F
Feels Like 71.6 °F
N
2.0
Wind Variable Wind from WSW
Gusts 5.0 mph

Today
High -- | Low -- °F
--% Chance of Precip.
Yesterday
High -- | Low -- °F
Precip. -- in
Pressure 29.94 in
Visibility 10.0 miles
Clouds Few 6000 ft
Dew Point 67 °F
Humidity 87%
Rainfall 0.00 in
Snow Depth Not available.
5:38 AM 8:14 PM
Waning Crescent, 18% visible
METAR KEEN 292356Z AUTO 00000KT 10SM FEW060 23/22 A2990 RMK AO2 SLP139 60001 T02280217 10283 20228 52015
Pressure 29.94 in
Visibility 10.0 miles
Clouds Few 6000 ft
Dew Point 67 °F
Humidity 87%
Rainfall 0.00 in
Snow Depth Not available.
5:38 AM 8:14 PM
Waning Crescent, 18% visible
METAR KEEN 292356Z AUTO 00000KT 10SM FEW060 23/22 A2990 RMK AO2 SLP139 60001 T02280217 10283 20228 52015

10-Day Weather Forecast

Almanac

Astronomy

Jul. 29, 2016 Rise Set
Actual Time
Civil Twilight
Nautical Twilight
Astronomical Twilight
Moon
Length of Visible Light
Length of Day
Tomorrow will be .
, % of the Moon is Illuminated

Today's Extremes

State Highs State Lows

Community

WunderPhotos

Upload Photos

1,928,449 photos uploaded!

WunderBlog® & News

Nearby

Air Quality

  Air Quality AQ Index Pollutant
Not available.

Snow Depth

Station Depth Elevation

Earthquake Activity

City Distance Mag. Time & Date
Minimum magnitude displayed is 2.5.

Coastal Water Temperatures

Place Temperature

Stations

Nearby Weather Stations

Station Location Temp. Windchill Dew Point Humidity Wind Precip. Elev Updated Type
                   

Watches & Warnings

There are currently no watches in effect.